Terminal Aerodrome Forecast
Issued by NWS

Home | Current Version | Previous Version | Text Only | Print | Product List | Glossary On
Versions: 1 2 3 4 5 6 7 8 9 10 11 12 13 14 15 16 17 18 19 20 21 22 23 24 25 26 27 28 29 30 31 32 33 34 35 36
000
FTAK31 PANC 251736
TAFASD
TAF
PASD 251736Z 2518/2618 VRB03KT 5SM BR SCT005 BKN012
      TEMPO 2518/2520 2SM -DZ BR BKN004
     FM252000 13005KT P6SM BKN008 OVC015
     FM260300 VRB05KT P6SM SCT008 BKN015
      AMD LTD TO CLD VIS AND WIND=

USA.gov is the U.S. government's official web portal to all federal, state and local government web resources and services.